Montmorenci, South Carolina
Current Conditions -  °F | °C
As of 9:15 AM on Thursday 30 Oct 2014 (Local Time) from KAIK Reporting Station
Clear Clear  
Wind Chill: 55°   Ceiling: Unl
Heat Index: 55°   Visibility: 10mi
Dew Point: 50°   Wind: 8mph
Humidity: 82%   Direction: 10°N
Pressure: 30.07"   Gusts: NA
Location:  33.53°N, 81.64°W
Report Text: KAIK 301315Z AUTO 01007KT 10SM CLR 13/10 A3007 RMK AO2 PNO
Loading
Personal Weather Stations






























Interactive Weather Map
Tropical Storm Tracking
New forecast layout! Learn more

10-Day Weather Forecast

Advertisements
Track Severe Weather on mobile